Montour, IA (50173)

4:28 PM CDT on September 03, 2015 (GMT -0500)
Grinnell Weather.com | | Change Station
CLOSE
Current Station
Personal Weather Station
Location: Grinnell, IA
Elevation: 1014 ft
Nearby Weather Stations

Elev 1014 ft 41.75 °N, 92.70 °W | Updated 12 seconds ago

Clear
Clear
88.9 °F
Feels Like 100 °F
N
5.1
Wind Variable Wind from South
Gusts 9.2 mph

Today
High -- | Low -- °F
--% Chance of Precip.
Yesterday
High -- | Low -- °F
Precip. -- in
6:38 AM 7:41 PM
Waning Gibbous, 67% visible
Pressure 29.85 in
Visibility 10.0 miles
Clouds Clear
Heat Index 100 °F
Dew Point 76 °F
Humidity 66%
Rainfall 0.00 in
Snow Depth Not available.
UV 3.2 out of 12
Pollen 10.50 out of 12
Air Quality Not available.
Flu Activity Not available.
METAR KMIW 032053Z AUTO 21008KT 10SM CLR 32/22 A2987 RMK AO2 SLP106 T03170222 56009
Pressure 29.85 in
Visibility 10.0 miles
Clouds Clear
Heat Index 100 °F
Dew Point 76 °F
Humidity 66%
Rainfall 0.00 in
Snow Depth Not available.
UV 3.2 out of 12
Pollen 10.50 out of 12
Air Quality Not available.
Flu Activity Not available.
METAR KMIW 032053Z AUTO 21008KT 10SM CLR 32/22 A2987 RMK AO2 SLP106 T03170222 56009

10-Day Weather Forecast

×

Almanac

Astronomy

Sep. 03, 2015 Rise Set
Actual Time
Civil Twilight
Nautical Twilight
Astronomical Twilight
Moon
Length of Visible Light
Length of Day
Tomorrow will be .
, % of the Moon is Illuminated

Today's Extremes

State Highs State Lows

Community

WunderPhotos

Upload Photos

1,852,038 photos uploaded!

WunderBlogs® & News

Nearby

Air Quality

  Air Quality AQ Index Pollutant
Not available.

Snow Depth

Station Depth Elevation

Earthquake Activity

City Distance Mag. Time & Date
Minimum magnitude displayed is 2.5.

Coastal Water Temperatures

Place Temperature

Stations

Nearby Weather Stations

Station Location Temp. Windchill Dew Point Humidity Wind Precip. Elev Updated Type